Terminal Aerodrome Forecast
Issued by NWS

Home | Current Version | Previous Version | Text Only | Print | Product List | Glossary On
Versions: 1 2 3 4 5 6 7 8 9 10 11 12 13 14 15 16 17 18 19 20 21
461
FTUS42 KFFC 302201 AAA
TAFPDK
TAF AMD
KPDK 302201Z 3022/0118 17008G16KT P6SM SCT045 BKN100
     FM010000 17010G18KT P6SM SCT025 BKN035
      TEMPO 0101/0103 16015G25KT 4SM -SHRA BKN025
     FM010300 17008G18KT P6SM FEW050 OVC120
     FM010800 19010G20KT P6SM VCSH SCT012 BKN022 PROB30 0109/0111
      3SM TSRA BKN012CB OVC022
     FM011100 20010G20KT 4SM -TSRA SCT008 BKN012CB
     FM011500 22010G18KT P6SM OVC015
     FM011700 22010G20KT P6SM OVC050=

USA.gov is the U.S. government's official web portal to all federal, state and local government web resources and services.